M I D A S
Marine Information and Data Acquisition System
Tripno 1155 of the Zeeleeuw from 2006-08-29 06:31:26 to 2006-08-29 13:58:49
Back to CruiseResearch ActivitiesStationsMapUnderway DataData graphs

EquipmentUnitsComment
TimeDGPSUTC
LatitudeDGPSDM.mWGS84
LongitudeDGPSDM.mWGS84
TemperatureSBE03/SBE38deg celciusITS90
ConductivitySBE21S/mITS90
SalinitySBE21 Practical Salinity Units
ChlorophylAChelsea fluorimeterg/lCalibrated in Aceton
Missing or incorrect values are displayed as -999
Sea surface data collected by the RV Zeeleeuw from 2006-08-29 06:30:03 to 2006-08-29 14:10:36
Time Latitude Longitude Temperature Conductivity Salinity ChlorophylA
2006-08-29 06:31:08 51°13.613 2°56.032 21.0061 4.722125 32.280371 -0.410446
2006-08-29 06:32:08 51°13.639 2°55.959 21.0052 4.721914 32.281259 -0.410446
2006-08-29 06:33:09 51°13.676 2°55.886 21.0086 4.721492 32.280532 -0.376736
2006-08-29 06:34:09 51°13.707 2°55.803 19.7254 4.680792 32.169269 0.331161
2006-08-29 06:35:08 51°13.721 2°55.727 19.6213 3.161454 22.125645 0.263742
2006-08-29 06:36:08 51°13.728 2°55.723 19.5048 3.105665 21.743543 0.297452
2006-08-29 06:37:08 51°13.727 2°55.725 19.0778 3.311064 23.453279 0.39858
2006-08-29 06:38:08 51°13.746 2°55.713 18.9265 3.600163 25.963983 0.465999
2006-08-29 06:39:08 51°13.821 2°55.641 18.8515 3.672851 26.610453 0.499708
2006-08-29 06:40:08 51°13.923 2°55.564 18.796 3.710357 26.959733 0.600836
2006-08-29 06:41:08 51°14.034 2°55.49 18.7325 3.722474 27.088199 0.634546
2006-08-29 06:42:08 51°14.154 2°55.4 18.6191 3.749551 27.358366 0.634546
2006-08-29 06:43:08 51°14.266 2°55.258 18.4583 3.722476 27.231852 0.634546
2006-08-29 06:44:07 51°14.355 2°55.081 18.4243 3.680547 26.971236 0.600836
2006-08-29 06:45:08 51°14.472 2°54.911 18.4625 3.775262 27.741711 0.634546
2006-08-29 06:46:07 51°14.613 2°54.774 18.3947 3.999186 29.579156 0.668255
2006-08-29 06:47:08 51°14.778 2°54.62 18.356 4.160234 30.956272 0.668255
2006-08-29 06:48:08 51°14.942 2°54.464 18.4597 4.269125 31.863984 0.600836
2006-08-29 06:49:08 51°15.105 2°54.313 18.5173 4.393945 32.83033 0.634546
2006-08-29 06:50:08 51°15.266 2°54.155 18.512 4.438541 33.173108 0.600836
2006-08-29 06:51:08 51°15.429 2°53.997 18.4788 4.48177 33.547672 0.567127
2006-08-29 06:52:08 51°15.593 2°53.843 18.4627 4.497375 33.700777 0.533418
2006-08-29 06:53:08 51°15.755 2°53.685 18.4537 4.527109 33.964557 0.499708
2006-08-29 06:54:08 51°15.933 2°53.575 18.4598 4.531327 34.006527 0.567127
2006-08-29 06:55:08 51°16.118 2°53.539 18.4827 4.529007 33.973974 0.533418
2006-08-29 06:56:08 51°16.305 2°53.494 18.5053 4.520782 33.885964 0.567127
2006-08-29 06:57:08 51°16.496 2°53.449 18.5225 4.516037 33.828436 0.567127
2006-08-29 06:58:08 51°16.685 2°53.403 18.5354 4.505282 33.726495 0.533418
2006-08-29 06:59:08 51°16.876 2°53.355 18.5363 4.507707 33.739761 0.499708
2006-08-29 07:00:08 51°17.064 2°53.313 18.5493 4.525948 33.889114 0.499708
2006-08-29 07:01:08 51°17.249 2°53.306 18.565 4.52036 33.829886 0.499708
2006-08-29 07:02:08 51°17.438 2°53.344 18.5529 4.538601 33.976865 0.465999
2006-08-29 07:03:08 51°17.618 2°53.458 18.5445 4.547353 34.060332 0.432289
2006-08-29 07:04:08 51°17.793 2°53.583 18.5451 4.537968 33.988138 0.39858
2006-08-29 07:05:08 51°17.967 2°53.709 18.5419 4.552414 34.105765 0.39858
2006-08-29 07:06:08 51°18.142 2°53.83 18.5338 4.55157 34.101064 0.364871
2006-08-29 07:07:08 51°18.317 2°53.948 18.5358 4.555367 34.139465 0.39858
2006-08-29 07:08:08 51°18.492 2°54.072 18.5333 4.555788 34.144791 0.39858
2006-08-29 07:09:08 51°18.66 2°54.205 18.5323 4.553469 34.125318 0.364871
2006-08-29 07:10:08 51°18.83 2°54.337 18.5359 4.540288 34.013523 0.39858
2006-08-29 07:11:07 51°18.993 2°54.487 18.5498 4.548618 34.078073 0.39858
2006-08-29 07:12:08 51°19.15 2°54.666 18.5613 4.541975 34.01167 0.364871
2006-08-29 07:13:08 51°19.302 2°54.845 18.5663 4.531431 33.915582 0.364871
2006-08-29 07:14:08 51°19.456 2°55.026 18.57 4.51804 33.799852 0.331161
2006-08-29 07:15:07 51°19.608 2°55.202 18.576 4.51941 33.807801 0.39858
2006-08-29 07:16:08 51°19.767 2°55.383 18.5785 4.518356 33.796028 0.364871
2006-08-29 07:17:07 51°19.912 2°55.574 18.5783 4.52521 33.850482 0.432289
2006-08-29 07:18:08 51°20.059 2°55.773 18.5719 4.527846 33.87433 0.364871
2006-08-29 07:19:08 51°20.205 2°55.969 18.5618 4.527951 33.880522 0.39858
2006-08-29 07:20:07 51°20.349 2°56.157 18.5547 4.530482 33.909992 0.432289
2006-08-29 07:21:08 51°20.484 2°56.373 18.5163 4.531326 33.933021 0.432289
2006-08-29 07:22:08 51°20.612 2°56.596 18.5019 4.503701 33.723824 0.465999
2006-08-29 07:23:08 51°20.737 2°56.82 18.5158 4.469539 33.44407 0.39858
2006-08-29 07:24:08 51°20.862 2°57.049 18.5327 4.438963 33.173742 0.39858
2006-08-29 07:25:07 51°20.986 2°57.273 18.5219 4.431583 33.101094 0.39858
2006-08-29 07:26:08 51°21.111 2°57.502 18.5206 4.414397 32.970202 0.39858
2006-08-29 07:27:08 51°21.233 2°57.735 18.5399 4.402167 32.860062 0.39858
2006-08-29 07:28:08 51°21.355 2°57.966 18.5539 4.400269 32.832213 0.432289
2006-08-29 07:29:07 51°21.477 2°58.192 18.5738 4.404697 32.854856 0.39858
2006-08-29 07:30:08 51°21.602 2°58.427 18.5791 4.396157 32.772807 0.432289
2006-08-29 07:31:08 51°21.739 2°58.638 18.5868 4.391307 32.729542 0.432289
2006-08-29 07:32:08 51°21.877 2°58.843 18.5846 4.37602 32.598799 0.432289
2006-08-29 07:33:08 51°22.015 2°59.051 18.5919 4.359363 32.457884 0.39858
2006-08-29 07:34:08 51°22.155 2°59.256 18.6022 4.354302 32.410146 0.364871
2006-08-29 07:35:08 51°22.3 2°59.453 18.6119 4.35388 32.398754 0.39858
2006-08-29 07:36:08 51°22.463 2°59.607 18.6192 4.345025 32.320072 0.39858
2006-08-29 07:37:08 51°22.629 2°59.754 18.6238 4.342284 32.292803 0.39858
2006-08-29 07:38:08 51°22.77 2°59.872 18.6346 4.328367 32.16882 0.432289
2006-08-29 07:39:08 51°22.879 2°59.951 18.6382 4.327524 32.156793 0.465999
2006-08-29 07:40:08 51°22.95 2°59.987 18.6478 4.315717 32.054906 0.465999
2006-08-29 07:41:08 51°22.991 3°0.013 18.6495 4.319406 32.081065 0.432289
2006-08-29 07:42:08 51°23.013 3°0.027 18.663 4.319933 32.078758 0.499708
2006-08-29 07:43:08 51°23.023 3°0.03 18.6653 4.316771 32.045854 0.499708
2006-08-29 07:44:08 51°23.016 3°0.027 18.6707 4.317087 32.045698 0.465999
2006-08-29 07:45:07 51°23.008 3°0.026 18.6721 4.302749 31.923533 0.465999
2006-08-29 07:46:08 51°23.001 3°0.023 18.6692 4.316981 32.040934 0.499708
2006-08-29 07:47:08 51°22.994 3°0.021 18.6657 4.316243 32.034816 0.465999
2006-08-29 07:48:07 51°22.986 3°0.023 18.6663 4.311078 31.99588 0.432289
2006-08-29 07:49:08 51°22.979 3°0.021 18.6677 4.314451 32.023847 0.39858
2006-08-29 07:50:08 51°22.972 3°0.022 18.6647 4.305912 31.95251 0.432289
2006-08-29 07:51:08 51°22.967 3°0.022 18.6667 4.315822 32.034653 0.432289
2006-08-29 07:52:08 51°22.997 3°0.079 18.6669 4.315822 32.035209 0.432289
2006-08-29 07:53:08 51°22.935 3°0.194 18.6711 4.3154 32.028935 0.499708
2006-08-29 07:54:08 51°22.833 3°0.077 18.6608 4.302539 31.924 0.533418
2006-08-29 07:55:08 51°22.781 2°59.852 18.6586 4.307072 31.965447 0.533418
2006-08-29 07:56:08 51°22.74 2°59.626 18.6512 4.312659 32.015097 0.499708
2006-08-29 07:57:08 51°22.701 2°59.411 18.64 4.315927 32.048868 0.499708
2006-08-29 07:58:08 51°22.684 2°59.316 18.6407 4.320461 32.090368 0.465999
2006-08-29 07:59:08 51°22.673 2°59.319 18.6423 4.321831 32.101182 0.499708
2006-08-29 08:00:08 51°22.668 2°59.331 18.6472 4.321093 32.095059 0.499708
2006-08-29 08:01:08 51°22.664 2°59.337 18.6457 4.324994 32.125195 0.465999
2006-08-29 08:02:08 51°22.661 2°59.34 18.6443 4.325204 32.125272 0.432289
2006-08-29 08:03:08 51°22.657 2°59.341 18.6442 4.325732 32.131876 0.432289
2006-08-29 08:04:08 51°22.651 2°59.341 18.6441 4.326048 32.133943 0.465999
2006-08-29 08:05:08 51°22.64 2°59.339 18.6407 4.326364 32.137125 0.432289
2006-08-29 08:06:07 51°22.631 2°59.335 18.6439 4.326364 32.139356 0.432289
2006-08-29 08:07:08 51°22.62 2°59.333 18.6395 4.32668 32.141422 0.432289
2006-08-29 08:08:08 51°22.608 2°59.33 18.6374 4.326891 32.144288 0.432289
2006-08-29 08:09:08 51°22.598 2°59.323 18.635 4.326786 32.145645 0.432289
2006-08-29 08:10:07 51°22.588 2°59.321 18.6394 4.327313 32.149461 0.432289
2006-08-29 08:11:07 51°22.579 2°59.318 18.631 4.327208 32.148587 0.39858
2006-08-29 08:12:08 51°22.566 2°59.313 18.6314 4.327313 32.151694 0.39858
2006-08-29 08:13:07 51°22.515 2°59.234 18.6294 4.327524 32.155676 0.39858
2006-08-29 08:14:08 51°22.477 2°59.052 18.6129 4.333322 32.210523 0.499708
2006-08-29 08:15:08 51°22.461 2°58.931 18.6107 4.333112 32.21045 0.499708
2006-08-29 08:16:09 51°22.451 2°58.914 18.6151 4.332584 32.206631 0.465999
2006-08-29 08:17:08 51°22.442 2°58.93 18.61 4.334587 32.222148 0.465999
2006-08-29 08:18:08 51°22.439 2°58.937 18.6075 4.335009 32.229008 0.432289
2006-08-29 08:19:08 51°22.435 2°58.937 18.6075 4.33522 32.231319 0.499708
2006-08-29 08:20:08 51°22.429 2°58.935 18.6047 4.33522 32.231879 0.465999
2006-08-29 08:21:08 51°22.421 2°58.929 18.6048 4.334798 32.230056 0.465999
2006-08-29 08:22:08 51°22.409 2°58.924 18.6039 4.335431 32.23475 0.465999
2006-08-29 08:23:08 51°22.397 2°58.917 18.6042 4.335853 32.240493 0.465999
2006-08-29 08:24:08 51°22.384 2°58.91 18.6143 4.337645 32.254822 0.465999
2006-08-29 08:25:08 51°22.371 2°58.901 18.6139 4.341756 32.280573 0.499708
2006-08-29 08:26:08 51°22.361 2°58.895 18.6118 4.344392 32.304712 0.499708
2006-08-29 08:27:08 51°22.349 2°58.888 18.6155 4.344076 32.301524 0.499708
2006-08-29 08:28:08 51°22.311 2°58.832 18.6166 4.344814 32.305411 0.499708
2006-08-29 08:29:07 51°22.287 2°58.692 18.6172 4.342073 32.28264 0.533418
2006-08-29 08:30:08 51°22.278 2°58.59 18.608 4.348293 32.331509 0.499708
2006-08-29 08:31:08 51°22.266 2°58.576 18.6049 4.348609 32.343684 0.465999
2006-08-29 08:32:07 51°22.262 2°58.58 18.604 4.349663 32.352446 0.499708
2006-08-29 08:33:08 51°22.259 2°58.58 18.6099 4.350401 32.358018 0.499708
2006-08-29 08:34:08 51°22.253 2°58.576 18.6125 4.351455 32.362845 0.465999
2006-08-29 08:35:08 51°22.244 2°58.572 18.6146 4.351455 32.361159 0.499708
2006-08-29 08:36:08 51°22.234 2°58.566 18.6149 4.350928 32.356217 0.533418
2006-08-29 08:37:08 51°22.223 2°58.562 18.6197 4.350717 32.352218 0.499708
2006-08-29 08:38:08 51°22.211 2°58.553 18.6205 4.347344 32.321381 0.499708
2006-08-29 08:39:08 51°22.2 2°58.546 18.6194 4.346289 32.312062 0.533418
2006-08-29 08:40:08 51°22.189 2°58.541 18.6153 4.344708 32.300609 0.499708
2006-08-29 08:41:08 51°22.178 2°58.533 18.6143 4.344076 32.297597 0.499708
2006-08-29 08:42:08 51°22.164 2°58.525 18.6074 4.342916 32.289085 0.499708
2006-08-29 08:43:08 51°22.143 2°58.506 18.5985 4.341018 32.278366 0.499708
2006-08-29 08:44:08 51°22.106 2°58.403 18.5797 4.335009 32.241888 0.533418
2006-08-29 08:45:08 51°22.102 2°58.291 18.5801 4.329844 32.206802 0.499708
2006-08-29 08:46:08 51°22.097 2°58.246 18.5791 4.331003 32.214199 0.499708
2006-08-29 08:47:08 51°22.083 2°58.258 18.5816 4.330476 32.211498 0.533418
2006-08-29 08:48:08 51°22.077 2°58.269 18.579 4.330687 32.21325 0.533418
2006-08-29 08:49:08 51°22.074 2°58.269 18.5777 4.329211 32.200986 0.533418
2006-08-29 08:50:08 51°22.067 2°58.267 18.5785 4.328579 32.196289 0.533418
2006-08-29 08:51:08 51°22.058 2°58.262 18.5791 4.329211 32.202105 0.499708
2006-08-29 08:52:08 51°22.049 2°58.258 18.5801 4.32879 32.198041 0.499708
2006-08-29 08:53:08 51°22.039 2°58.254 18.5833 4.329 32.198114 0.499708
2006-08-29 08:54:08 51°22.029 2°58.249 18.5893 4.328262 32.189185 0.533418
2006-08-29 08:55:08 51°22.015 2°58.239 18.5963 4.326259 32.168631 0.533418
2006-08-29 08:56:08 51°21.97 2°58.159 18.602 4.322886 32.133911 0.567127
2006-08-29 08:57:08 51°21.958 2°58.026 18.6047 4.316349 32.076857 0.600836
2006-08-29 08:58:08 51°21.962 2°57.924 18.6199 4.316349 32.072958 0.567127
2006-08-29 08:59:08 51°21.955 2°57.894 18.622 4.320355 32.095064 0.567127
2006-08-29 09:00:08 51°21.943 2°57.894 18.6192 4.32162 32.108349 0.600836
2006-08-29 09:01:08 51°21.931 2°57.896 18.6139 4.31909 32.087908 0.567127
2006-08-29 09:02:08 51°21.921 2°57.901 18.6074 4.318036 32.083615 0.567127
2006-08-29 09:03:08 51°21.914 2°57.905 18.6048 4.318669 32.093323 0.567127
2006-08-29 09:04:08 51°21.908 2°57.905 18.6024 4.316666 32.076697 0.600836
2006-08-29 09:05:08 51°21.901 2°57.9 18.6005 4.315822 32.073039 0.567127
2006-08-29 09:06:08 51°21.891 2°57.892 18.5971 4.315822 32.073039 0.567127
2006-08-29 09:07:08 51°21.881 2°57.884 18.5936 4.316455 32.080518 0.600836
2006-08-29 09:08:08 51°21.87 2°57.876 18.5963 4.316666 32.084497 0.567127
2006-08-29 09:09:08 51°21.857 2°57.868 18.595 4.31635 32.0802 0.600836
2006-08-29 09:10:08 51°21.843 2°57.86 18.5992 4.315401 32.074552 0.567127
2006-08-29 09:11:08 51°21.829 2°57.852 18.598 4.314874 32.066834 0.567127
2006-08-29 09:12:08 51°21.802 2°57.827 18.5961 4.314663 32.06564 0.600836
2006-08-29 09:13:08 51°21.768 2°57.741 18.5996 4.314663 32.064526 0.668255
2006-08-29 09:14:08 51°21.758 2°57.653 18.597 4.31772 32.088791 0.600836
2006-08-29 09:15:08 51°21.77 2°57.583 18.6014 4.315928 32.075028 0.634546
2006-08-29 09:16:08 51°21.777 2°57.551 18.6145 4.317614 32.085129 0.600836
2006-08-29 09:17:08 51°21.773 2°57.533 18.6322 4.318247 32.081466 0.600836
2006-08-29 09:18:08 51°21.761 2°57.526 18.6224 4.318774 32.079714 0.634546
2006-08-29 09:19:08 51°21.744 2°57.52 18.6254 4.318036 32.076375 0.600836
2006-08-29 09:20:08 51°21.726 2°57.511 18.6229 4.319828 32.087348 0.600836
2006-08-29 09:21:08 51°21.709 2°57.499 18.6219 4.320777 32.098563 0.600836
2006-08-29 09:22:08 51°21.692 2°57.49 18.6343 4.320777 32.097449 0.567127
2006-08-29 09:23:08 51°21.676 2°57.48 18.5969 4.32415 32.12656 0.634546
2006-08-29 09:24:07 51°21.66 2°57.468 18.5978 4.321937 32.128823 0.634546
2006-08-29 09:25:08 51°21.647 2°57.459 18.5998 4.31909 32.099053 0.600836
2006-08-29 09:26:08 51°21.634 2°57.449 18.6084 4.318563 32.09635 0.600836
2006-08-29 09:27:08 51°21.621 2°57.441 18.6144 4.319617 32.096183 0.567127
2006-08-29 09:28:08 51°21.606 2°57.433 18.6112 4.319828 32.095147 0.533418
2006-08-29 09:29:08 51°21.594 2°57.429 18.6162 4.318563 32.08799 0.567127
2006-08-29 09:30:08 51°21.627 2°57.415 18.6045 4.317403 32.073354 0.634546
2006-08-29 09:31:08 51°21.657 2°57.327 18.6118 4.315295 32.065878 0.668255
2006-08-29 09:32:08 51°21.641 2°57.208 18.6209 4.320988 32.102542 0.634546
2006-08-29 09:33:08 51°21.62 2°57.141 18.6239 4.324572 32.126714 0.634546
2006-08-29 09:34:08 51°21.599 2°57.123 18.6158 4.32784 32.154394 0.668255
2006-08-29 09:35:08 51°21.582 2°57.112 18.6131 4.333322 32.204931 0.668255
2006-08-29 09:36:08 51°21.564 2°57.102 18.6161 4.333744 32.211228 0.634546
2006-08-29 09:37:08 51°21.544 2°57.094 18.6177 4.328157 32.160369 0.634546
2006-08-29 09:38:08 51°21.524 2°57.084 18.6189 4.327208 32.153609 0.634546
2006-08-29 09:39:08 51°21.503 2°57.073 18.6317 4.327102 32.150502 0.634546
2006-08-29 09:40:08 51°21.482 2°57.061 18.6268 4.324572 32.121696 0.634546
2006-08-29 09:41:08 51°21.461 2°57.049 18.6272 4.323729 32.116928 0.634546
2006-08-29 09:42:08 51°21.44 2°57.036 18.6267 4.323096 32.113351 0.634546
2006-08-29 09:43:08 51°21.418 2°57.025 18.6321 4.323623 32.114938 0.634546
2006-08-29 09:44:08 51°21.396 2°57.015 18.6257 4.325521 32.129569 0.668255
2006-08-29 09:45:08 51°21.372 2°56.998 18.6239 4.325732 32.134664 0.634546
2006-08-29 09:46:08 51°21.339 2°56.923 18.6147 4.327629 32.150412 0.701965
2006-08-29 09:47:08 51°21.359 2°56.839 18.6134 4.321515 32.105802 0.735674
2006-08-29 09:48:08 51°21.406 2°56.843 18.6183 4.329316 32.177816 0.701965
2006-08-29 09:49:08 51°21.441 2°56.803 18.6262 4.328157 32.164836 0.701965
2006-08-29 09:50:08 51°21.45 2°56.776 18.6211 4.325205 32.132521 0.668255
2006-08-29 09:51:08 51°21.443 2°56.766 18.6385 4.324678 32.129261 0.600836
2006-08-29 09:52:08 51°21.425 2°56.76 18.6233 4.324256 32.116843 0.600836
2006-08-29 09:53:08 51°21.406 2°56.751 18.6139 4.323412 32.11932 0.668255
2006-08-29 09:54:08 51°21.386 2°56.743 18.6249 4.322464 32.121482 0.600836
2006-08-29 09:55:08 51°21.366 2°56.733 18.6263 4.325099 32.131646 0.600836
2006-08-29 09:56:08 51°21.347 2°56.725 18.6284 4.323834 32.117245 0.567127
2006-08-29 09:57:08 51°21.328 2°56.717 18.6313 4.323202 32.113668 0.634546
2006-08-29 09:58:07 51°21.31 2°56.709 18.6232 4.326153 32.135375 0.567127
2006-08-29 09:59:08 51°21.291 2°56.701 18.6221 4.319934 32.089893 0.634546
2006-08-29 10:00:08 51°21.274 2°56.694 18.6238 4.317509 32.070331 0.634546
2006-08-29 10:01:08 51°21.257 2°56.686 18.6289 4.31772 32.068741 0.634546
2006-08-29 10:02:08 51°21.239 2°56.676 18.6337 4.317509 32.063653 0.634546
2006-08-29 10:03:08 51°21.218 2°56.667 18.635 4.313819 32.028046 0.634546
2006-08-29 10:04:08 51°21.197 2°56.655 18.6226 4.309707 31.997839 0.735674
2006-08-29 10:05:08 51°21.174 2°56.64 18.6233 4.30644 31.977399 0.735674
2006-08-29 10:06:08 51°21.153 2°56.625 18.6493 4.300958 31.92363 0.701965
2006-08-29 10:07:08 51°21.132 2°56.613 18.6666 4.293683 31.848977 0.701965
2006-08-29 10:08:08 51°21.113 2°56.6 18.6796 4.290521 31.811751 0.735674
2006-08-29 10:09:08 51°21.093 2°56.587 18.6906 4.286093 31.762986 0.735674
2006-08-29 10:10:08 51°21.072 2°56.573 18.6907 4.283246 31.733938 0.701965
2006-08-29 10:11:08 51°21.05 2°56.558 18.6897 4.281349 31.717143 0.701965
2006-08-29 10:12:08 51°21.027 2°56.542 18.69 4.279451 31.703096 0.701965
2006-08-29 10:13:08 51°21.006 2°56.528 18.694 4.279662 31.702643 0.701965
2006-08-29 10:14:08 51°20.984 2°56.514 18.6873 4.279346 31.700028 0.735674
2006-08-29 10:15:08 51°20.963 2°56.499 18.6816 4.278292 31.696799 0.769383
2006-08-29 10:16:08 51°20.944 2°56.485 18.6902 4.277238 31.689726 0.735674
2006-08-29 10:17:08 51°20.925 2°56.471 18.6921 4.277132 31.682268 0.769383
2006-08-29 10:18:08 51°20.904 2°56.456 18.7028 4.274075 31.655342 0.735674
2006-08-29 10:19:08 51°20.883 2°56.442 18.7027 4.271018 31.621305 0.769383
2006-08-29 10:20:08 51°20.862 2°56.426 18.7149 4.267433 31.590589 0.701965
2006-08-29 10:21:08 51°20.859 2°56.422 18.7188 4.26543 31.564203 0.735674
2006-08-29 10:22:08 51°20.891 2°56.406 18.7164 4.264165 31.558122 0.803093
2006-08-29 10:23:08 51°20.946 2°56.39 18.704 4.271334 31.614615 0.803093
2006-08-29 10:24:08 51°21.005 2°56.372 18.6806 4.276183 31.667841 0.735674
2006-08-29 10:25:08 51°21.051 2°56.357 18.6417 4.291469 31.819055 0.735674
2006-08-29 10:26:08 51°21.086 2°56.351 18.6348 4.303488 31.940171 0.701965
2006-08-29 10:27:08 51°21.123 2°56.351 18.631 4.304015 31.947311 0.701965
2006-08-29 10:28:08 51°21.172 2°56.358 18.6354 4.300957 31.920861 0.668255
2006-08-29 10:29:08 51°21.215 2°56.357 18.6686 4.299482 31.908629 0.668255
2006-08-29 10:30:08 51°21.241 2°56.347 18.6598 4.278819 31.712695 0.668255
2006-08-29 10:31:08 51°21.25 2°56.336 18.65 4.287569 31.794478 0.668255
2006-08-29 10:32:08 51°21.248 2°56.325 18.6562 4.288201 31.804126 0.668255
2006-08-29 10:33:08 51°21.236 2°56.312 18.7303 4.286093 31.769591 0.634546
2006-08-29 10:34:08 51°21.221 2°56.299 18.7184 4.275445 31.63764 0.668255
2006-08-29 10:35:08 51°21.199 2°56.287 18.7165 4.267644 31.584677 0.634546
2006-08-29 10:36:08 51°21.176 2°56.274 18.7218 4.265536 31.565074 0.600836
2006-08-29 10:37:08 51°21.153 2°56.261 18.7305 4.261846 31.530779 0.634546
2006-08-29 10:38:08 51°21.13 2°56.249 18.7338 4.260581 31.51488 0.600836
2006-08-29 10:39:08 51°21.106 2°56.235 18.7361 4.259316 31.501711 0.668255
2006-08-29 10:40:08 51°21.084 2°56.22 18.7398 4.258473 31.492026 0.668255
2006-08-29 10:41:08 51°21.06 2°56.206 18.7335 4.25784 31.487894 0.735674
2006-08-29 10:42:08 51°21.038 2°56.192 18.7572 4.255205 31.463965 0.668255
2006-08-29 10:43:08 51°21.016 2°56.177 18.747 4.255626 31.453305 0.701965
2006-08-29 10:44:08 51°20.993 2°56.163 18.7579 4.252569 31.434063 0.668255
2006-08-29 10:45:08 51°20.971 2°56.148 18.7621 4.250988 31.411245 0.668255
2006-08-29 10:46:08 51°20.949 2°56.135 18.7611 4.247931 31.385492 0.701965
2006-08-29 10:47:08 51°20.928 2°56.12 18.7592 4.245295 31.366472 0.735674
2006-08-29 10:48:08 51°20.905 2°56.108 18.7742 4.243819 31.351053 0.701965
2006-08-29 10:49:08 51°20.885 2°56.098 18.7958 4.244663 31.347715 0.735674
2006-08-29 10:50:08 51°20.916 2°56.082 18.7763 4.244557 31.336564 0.803093
2006-08-29 10:51:08 51°20.98 2°56.016 18.7565 4.241816 31.326963 0.769383
2006-08-29 10:52:08 51°21.048 2°55.937 18.741 4.248563 31.396133 0.769383
2006-08-29 10:53:08 51°21.064 2°55.879 18.7003 4.258683 31.497579 0.735674
2006-08-29 10:54:09 51°21.043 2°55.862 18.6801 4.265958 31.581673 0.735674
2006-08-29 10:55:08 51°21.021 2°55.847 18.6744 4.268277 31.614523 0.668255
2006-08-29 10:56:08 51°20.999 2°55.83 18.6997 4.264377 31.580633 0.701965
2006-08-29 10:57:08 51°20.978 2°55.816 18.7089 4.261003 31.535817 0.634546
2006-08-29 10:58:08 51°20.957 2°55.803 18.7067 4.259527 31.520897 0.634546
2006-08-29 10:59:08 51°20.936 2°55.787 18.7211 4.258789 31.512621 0.600836
2006-08-29 11:00:08 51°20.914 2°55.773 18.7326 4.25784 31.49552 0.634546
2006-08-29 11:01:08 51°20.892 2°55.758 18.7391 4.257735 31.487569 0.634546
2006-08-29 11:02:08 51°20.868 2°55.743 18.7445 4.257313 31.4781 0.668255
2006-08-29 11:03:08 51°20.846 2°55.73 18.7554 4.254888 31.451566 0.668255
2006-08-29 11:04:08 51°20.855 2°55.723 18.7595 4.252885 31.419836 0.701965
2006-08-29 11:05:08 51°20.884 2°55.667 18.741 4.25278 31.429283 0.769383
2006-08-29 11:06:08 51°20.891 2°55.562 18.7574 4.25784 31.491162 0.735674
2006-08-29 11:07:08 51°20.874 2°55.497 18.7756 4.275655 31.610405 0.735674
2006-08-29 11:08:09 51°20.851 2°55.466 18.7576 4.279661 31.643471 0.701965
2006-08-29 11:09:08 51°20.827 2°55.44 18.7613 4.277026 31.622809 0.668255
2006-08-29 11:10:08 51°20.804 2°55.425 18.7373 4.277131 31.625319 0.668255
2006-08-29 11:11:08 51°20.78 2°55.407 18.7357 4.277448 31.647071 0.701965
2006-08-29 11:12:08 51°20.751 2°55.385 18.7292 4.273231 31.611697 0.668255
2006-08-29 11:13:08 51°20.726 2°55.368 18.7338 4.272704 31.610077 0.668255
2006-08-29 11:14:08 51°20.7 2°55.353 18.726 4.270595 31.592118 0.701965
2006-08-29 11:15:08 51°20.675 2°55.339 18.7233 4.267538 31.571241 0.701965
2006-08-29 11:16:08 51°20.647 2°55.327 18.7245 4.265114 31.553401 0.735674
2006-08-29 11:17:08 51°20.621 2°55.312 18.7343 4.261635 31.520313 0.701965
2006-08-29 11:18:08 51°20.595 2°55.294 18.75 4.260792 31.507357 0.701965
2006-08-29 11:19:09 51°20.569 2°55.276 18.7621 4.258578 31.474936 0.735674
2006-08-29 11:20:08 51°20.545 2°55.259 18.7598 4.255626 31.445153 0.735674
2006-08-29 11:21:08 51°20.504 2°55.223 18.7712 4.255837 31.447436 0.769383
2006-08-29 11:22:08 51°20.467 2°55.097 18.78 4.244979 31.347615 0.803093
2006-08-29 11:23:08 51°20.504 2°54.99 18.7598 4.243819 31.333189 0.803093
2006-08-29 11:24:08 51°20.569 2°54.992 18.743 4.258999 31.477327 0.769383
2006-08-29 11:25:08 51°20.622 2°55.006 18.7774 4.274496 31.613945 0.701965
2006-08-29 11:26:08 51°20.664 2°55.032 18.7762 4.284932 31.67604 0.668255
2006-08-29 11:27:08 51°20.687 2°55.044 18.7889 4.291046 31.72432 0.668255
2006-08-29 11:28:08 51°20.681 2°55.033 18.8034 4.29094 31.712496 0.701965
2006-08-29 11:29:08 51°20.668 2°55.019 18.8866 4.29231 31.704103 0.668255
2006-08-29 11:30:08 51°20.651 2°55.008 18.8371 4.296632 31.701475 0.634546
2006-08-29 11:31:08 51°20.629 2°54.996 18.8283 4.293786 31.710805 0.600836
2006-08-29 11:32:08 51°20.606 2°54.984 18.7875 4.285564 31.657204 0.634546
2006-08-29 11:33:08 51°20.584 2°54.97 18.7738 4.274074 31.582621 0.600836
2006-08-29 11:34:08 51°20.561 2°54.955 18.764 4.268697 31.548081 0.634546
2006-08-29 11:35:08 51°20.538 2°54.94 18.7628 4.264375 31.517871 0.634546
2006-08-29 11:36:08 51°20.517 2°54.925 18.7693 4.2629 31.505151 0.634546
2006-08-29 11:37:08 51°20.494 2°54.913 18.7681 4.261213 31.489061 0.634546
2006-08-29 11:38:08 51°20.493 2°54.909 18.7829 4.260264 31.476885 0.634546
2006-08-29 11:39:08 51°20.512 2°54.867 18.7907 4.260686 31.476557 0.735674
2006-08-29 11:40:08 51°20.52 2°54.769 18.814 4.278817 31.605385 0.735674
2006-08-29 11:41:08 51°20.513 2°54.701 18.8398 4.291045 31.688203 0.735674
2006-08-29 11:42:09 51°20.484 2°54.688 18.8394 4.291467 31.686762 0.769383
2006-08-29 11:43:08 51°20.453 2°54.678 18.8383 4.291467 31.682391 0.668255
2006-08-29 11:44:08 51°20.42 2°54.665 18.8131 4.291361 31.682615 0.735674
2006-08-29 11:45:08 51°20.39 2°54.648 18.7724 4.284615 31.66468 0.668255
2006-08-29 11:46:08 51°20.362 2°54.628 18.7614 4.279661 31.638551 0.735674
2006-08-29 11:47:08 51°20.335 2°54.611 18.769 4.276498 31.615181 0.668255
2006-08-29 11:48:08 51°20.309 2°54.596 18.7611 4.276182 31.610386 0.701965
2006-08-29 11:49:08 51°20.286 2°54.583 18.7658 4.278501 31.633899 0.634546
2006-08-29 11:50:08 51°20.265 2°54.57 18.795 4.276498 31.617912 0.668255
2006-08-29 11:51:08 51°20.244 2°54.558 18.805 4.260264 31.457325 0.668255
2006-08-29 11:52:08 51°20.224 2°54.548 18.7988 4.258788 31.442449 0.668255
2006-08-29 11:53:08 51°20.203 2°54.537 18.8106 4.255309 31.41541 0.668255
2006-08-29 11:54:08 51°20.188 2°54.53 18.83 4.253201 31.390454 0.668255
2006-08-29 11:55:08 51°20.21 2°54.515 18.8064 4.25436 31.390799 0.769383
2006-08-29 11:56:08 51°20.258 2°54.455 18.8224 4.255731 31.412921 0.803093
2006-08-29 11:57:07 51°20.301 2°54.387 18.8297 4.275654 31.563511 0.701965
2006-08-29 11:58:08 51°20.328 2°54.342 18.8328 4.293892 31.710033 0.701965
2006-08-29 11:59:08 51°20.344 2°54.315 18.8325 4.295473 31.720885 0.735674
2006-08-29 12:00:08 51°20.343 2°54.291 18.8353 4.295051 31.72069 0.701965
2006-08-29 12:01:08 51°20.328 2°54.273 18.8597 4.295578 31.718472 0.701965
2006-08-29 12:02:08 51°20.308 2°54.264 18.846 4.297265 31.724721 0.668255
2006-08-29 12:03:08 51°20.285 2°54.252 18.836 4.29737 31.731607 0.701965
2006-08-29 12:04:07 51°20.26 2°54.241 18.8429 4.297476 31.730835 0.634546
2006-08-29 12:05:09 51°20.235 2°54.227 18.8369 4.298952 31.742457 0.668255
2006-08-29 12:06:08 51°20.211 2°54.215 18.8362 4.299373 31.748123 0.634546
2006-08-29 12:07:08 51°20.187 2°54.202 18.8366 4.299479 31.74954 0.634546
2006-08-29 12:08:08 51°20.166 2°54.192 18.8319 4.29853 31.74719 0.634546
2006-08-29 12:09:09 51°20.144 2°54.181 18.8322 4.298425 31.747416 0.668255
2006-08-29 12:10:07 51°20.123 2°54.173 18.8383 4.29853 31.745548 0.668255
2006-08-29 12:11:08 51°20.102 2°54.161 18.8342 4.299162 31.745837 0.668255
2006-08-29 12:12:07 51°20.08 2°54.154 18.8257 4.298846 31.753084 0.668255
2006-08-29 12:13:08 51°20.057 2°54.146 18.8381 4.298425 31.747963 0.634546
2006-08-29 12:14:08 51°20.071 2°54.144 18.8209 4.298952 31.745193 0.701965
2006-08-29 12:15:08 51°20.109 2°54.071 18.8237 4.298319 31.758597 0.769383
2006-08-29 12:16:08 51°20.15 2°54.001 18.8217 4.29969 31.76278 0.769383
2006-08-29 12:17:08 51°20.17 2°53.955 18.848 4.299795 31.76091 0.735674
2006-08-29 12:18:08 51°20.164 2°53.926 18.8615 4.299584 31.743841 0.769383
2006-08-29 12:19:07 51°20.15 2°53.909 18.8611 4.300005 31.730362 0.735674
2006-08-29 12:20:08 51°20.129 2°53.899 18.8565 4.298635 31.727268 0.769383
2006-08-29 12:21:08 51°20.103 2°53.888 18.861 4.298319 31.726302 0.735674
2006-08-29 12:22:08 51°20.077 2°53.875 18.8649 4.299057 31.730744 0.701965
2006-08-29 12:23:09 51°20.052 2°53.863 18.8666 4.300216 31.73702 0.668255
2006-08-29 12:24:08 51°20.028 2°53.853 18.8666 4.300322 31.737342 0.668255
2006-08-29 12:25:09 51°20.005 2°53.844 18.8614 4.300638 31.737214 0.634546
2006-08-29 12:26:07 51°19.983 2°53.835 18.8305 4.302641 31.767951 0.668255
2006-08-29 12:27:08 51°19.961 2°53.827 18.8234 4.302958 31.785902 0.634546
2006-08-29 12:28:08 51°19.94 2°53.821 18.8207 4.302431 31.783746 0.634546
2006-08-29 12:29:08 51°19.92 2°53.815 18.8354 4.302114 31.784427 0.668255
2006-08-29 12:30:08 51°19.941 2°53.81 18.8244 4.303906 31.788794 0.701965
2006-08-29 12:31:09 51°19.974 2°53.738 18.8235 4.302431 31.78265 0.735674
2006-08-29 12:32:08 51°19.992 2°53.622 18.8227 4.30222 31.778718 0.735674
2006-08-29 12:33:08 51°20.008 2°53.525 18.8277 4.299795 31.762554 0.701965
2006-08-29 12:34:08 51°19.998 2°53.491 18.8192 4.299268 31.754371 0.701965
2006-08-29 12:35:08 51°19.983 2°53.479 18.8202 4.299795 31.770226 0.701965
2006-08-29 12:36:08 51°19.964 2°53.472 18.8293 4.299584 31.762458 0.701965
2006-08-29 12:37:08 51°19.943 2°53.462 18.8414 4.300322 31.763066 0.701965
2006-08-29 12:38:08 51°19.921 2°53.456 18.9169 4.300955 31.758972 0.668255
2006-08-29 12:39:08 51°19.901 2°53.451 18.9126 4.307384 31.762178 0.668255
2006-08-29 12:40:08 51°19.882 2°53.446 18.91 4.308439 31.773046 0.634546
2006-08-29 12:41:08 51°19.861 2°53.438 18.8438 4.305909 31.76752 0.634546
2006-08-29 12:42:08 51°19.84 2°53.432 18.8419 4.30243 31.767856 0.634546
2006-08-29 12:43:08 51°19.821 2°53.427 18.8441 4.30243 31.770047 0.701965
2006-08-29 12:44:08 51°19.799 2°53.423 18.8377 4.303906 31.782217 0.634546
2006-08-29 12:45:08 51°19.776 2°53.415 18.8329 4.304539 31.792366 0.668255
2006-08-29 12:46:09 51°19.753 2°53.41 18.8316 4.304012 31.788567 0.668255
2006-08-29 12:47:08 51°19.731 2°53.406 18.8384 4.30359 31.792764 0.634546
2006-08-29 12:48:08 51°19.738 2°53.411 18.8315 4.30612 31.793896 0.668255
2006-08-29 12:49:08 51°19.769 2°53.362 18.8228 4.304434 31.799722 0.735674
2006-08-29 12:50:09 51°19.785 2°53.25 18.8197 4.303379 31.792122 0.735674
2006-08-29 12:51:08 51°19.798 2°53.194 18.8145 4.303169 31.795867 0.769383
2006-08-29 12:52:08 51°19.807 2°53.169 18.8191 4.303063 31.794449 0.735674
2006-08-29 12:53:09 51°19.815 2°53.139 18.821 4.30359 31.796604 0.735674
2006-08-29 12:54:08 51°19.806 2°53.129 18.8195 4.30359 31.797701 0.735674
2006-08-29 12:55:08 51°19.79 2°53.127 18.8244 4.304012 31.800083 0.735674
2006-08-29 12:56:08 51°19.772 2°53.126 18.8282 4.303907 31.795374 0.735674
2006-08-29 12:57:08 51°19.751 2°53.126 18.8544 4.304855 31.797168 0.668255
2006-08-29 12:58:08 51°19.731 2°53.124 18.8693 4.308017 31.792556 0.668255
2006-08-29 12:59:08 51°19.711 2°53.123 18.8506 4.30749 31.79588 0.634546
2006-08-29 13:00:08 51°19.69 2°53.122 18.8456 4.305066 31.788492 0.634546
2006-08-29 13:01:08 51°19.669 2°53.119 18.8484 4.304644 31.785562 0.634546
2006-08-29 13:02:09 51°19.648 2°53.117 18.8448 4.304855 31.785109 0.668255
2006-08-29 13:03:08 51°19.628 2°53.115 18.8474 4.304855 31.791137 0.668255
2006-08-29 13:04:08 51°19.607 2°53.113 18.8525 4.305171 31.788265 0.668255
2006-08-29 13:05:09 51°19.607 2°53.123 18.8511 4.305698 31.789323 0.634546
2006-08-29 13:06:08 51°19.638 2°53.093 18.845 4.305277 31.788038 0.735674
2006-08-29 13:07:08 51°19.665 2°52.972 18.8435 4.304328 31.786242 0.769383
2006-08-29 13:08:08 51°19.695 2°52.874 18.8463 4.305382 31.798774 0.769383
2006-08-29 13:09:08 51°19.711 2°52.815 18.8694 4.305804 31.789097 0.735674
2006-08-29 13:10:08 51°19.706 2°52.785 18.8617 4.305698 31.780012 0.701965
2006-08-29 13:11:09 51°19.689 2°52.791 18.8534 4.305171 31.778405 0.769383
2006-08-29 13:12:08 51°19.671 2°52.792 18.8364 4.305382 31.787812 0.735674
2006-08-29 13:13:08 51°19.654 2°52.805 18.8333 4.306437 31.811858 0.701965
2006-08-29 13:14:08 51°19.641 2°52.817 18.8486 4.305066 31.794521 0.735674
2006-08-29 13:15:08 51°19.629 2°52.823 18.8664 4.305171 31.783882 0.735674
2006-08-29 13:16:08 51°19.614 2°52.827 18.8719 4.305276 31.773252 0.701965
2006-08-29 13:17:08 51°19.598 2°52.831 18.8754 4.305909 31.774633 0.701965
2006-08-29 13:18:08 51°19.581 2°52.838 18.8757 4.306014 31.77386 0.735674
2006-08-29 13:19:08 51°19.563 2°52.845 18.8776 4.30633 31.77373 0.701965
2006-08-29 13:20:08 51°19.546 2°52.853 18.881 4.306541 31.776014 0.701965
2006-08-29 13:21:08 51°19.528 2°52.86 18.89 4.306963 31.776752 0.701965
2006-08-29 13:22:08 51°19.509 2°52.865 18.887 4.308544 31.782119 0.701965
2006-08-29 13:23:08 51°19.491 2°52.871 18.8816 4.308123 31.784118 0.701965
2006-08-29 13:24:08 51°19.472 2°52.877 18.8837 4.308123 31.784665 0.735674
2006-08-29 13:25:08 51°19.454 2°52.885 18.8652 4.308333 31.787497 0.735674
2006-08-29 13:26:08 51°19.437 2°52.895 18.867 4.307174 31.788891 0.735674
2006-08-29 13:27:08 51°19.421 2°52.907 18.8661 4.306963 31.786058 0.735674
2006-08-29 13:28:09 51°19.405 2°52.92 18.8616 4.306858 31.78738 0.735674
2006-08-29 13:29:09 51°19.39 2°52.933 18.8618 4.306752 31.787058 0.701965
2006-08-29 13:30:08 51°19.364 2°52.943 18.8629 4.306542 31.788059 0.701965
2006-08-29 13:31:08 51°19.275 2°52.933 18.8651 4.307069 31.789665 0.701965
2006-08-29 13:32:08 51°19.118 2°52.887 18.8646 4.307596 31.792914 0.803093
2006-08-29 13:33:08 51°18.925 2°52.812 18.8788 4.309704 31.810293 0.803093
2006-08-29 13:34:08 51°18.73 2°52.735 18.9007 4.298002 31.698023 0.803093
2006-08-29 13:35:08 51°18.539 2°52.647 18.929 4.28746 31.601435 0.870512
2006-08-29 13:36:08 51°18.346 2°52.564 18.9451 4.271014 31.436938 0.870512
2006-08-29 13:37:08 51°18.153 2°52.484 18.9568 4.267008 31.397552 0.93793
2006-08-29 13:38:08 51°17.96 2°52.405 18.9648 4.264267 31.369113 0.97164
2006-08-29 13:39:08 51°17.767 2°52.321 18.929 4.260156 31.333744 1.039059
2006-08-29 13:40:08 51°17.57 2°52.324 18.9075 4.25594 31.327656 1.039059
2006-08-29 13:41:09 51°17.374 2°52.402 18.8125 4.269118 31.469496 1.005349
2006-08-29 13:42:08 51°17.19 2°52.506 18.8381 4.273757 31.54189 1.039059
2006-08-29 13:43:09 51°17.001 2°52.625 18.811 4.281979 31.610192 1.039059
2006-08-29 13:44:08 51°16.817 2°52.725 18.774 4.296316 31.738786 1.005349
2006-08-29 13:45:08 51°16.631 2°52.83 18.763 4.315925 31.930901 1.005349
2006-08-29 13:46:08 51°16.439 2°52.928 18.752 4.32341 32.01101 1.005349
2006-08-29 13:47:08 51°16.25 2°53.03 18.7564 4.340278 32.149446 0.97164
2006-08-29 13:48:08 51°16.059 2°53.135 18.7314 4.339224 32.131834 1.005349
2006-08-29 13:49:08 51°15.874 2°53.24 18.7155 4.362418 32.352314 1.005349
2006-08-29 13:50:08 51°15.688 2°53.342 18.7226 4.359782 32.339425 0.97164
2006-08-29 13:51:08 51°15.507 2°53.448 18.65 4.3504 32.272277 1.072768
2006-08-29 13:52:09 51°15.321 2°53.554 18.6108 4.338382 32.214515 1.308734
2006-08-29 13:53:08 51°15.144 2°53.68 18.6413 4.339542 32.244266 1.207606
2006-08-29 13:54:09 51°14.967 2°53.829 18.6701 4.349451 32.299648 1.106477
2006-08-29 13:55:08 51°14.829 2°54.045 18.7122 4.373805 32.487177 1.005349
2006-08-29 13:56:08 51°14.712 2°54.309 18.7409 4.382765 32.514821 1.005349
2006-08-29 13:57:08 51°14.595 2°54.575 18.7159 4.378759 32.481602 1.106477
2006-08-29 13:58:08 51°14.475 2°54.842 18.6452 4.38403 32.538823 1.173896
2006-08-29 13:59:08 51°14.357 2°55.109 18.735 4.382239 32.566801 1.241315
2006-08-29 14:00:08 51°14.238 2°55.309 18.7432 4.134932 30.446796 1.140187
2006-08-29 14:01:08 51°14.118 2°55.423 18.6831 3.588368 26.025206 1.409862
2006-08-29 14:02:08 51°13.995 2°55.511 18.6792 3.520009 25.514804 1.443571
2006-08-29 14:03:08 51°13.872 2°55.6 18.6874 3.46977 25.109791 1.51099
2006-08-29 14:04:08 51°13.771 2°55.693 18.8407 3.430276 24.788161 1.5447
2006-08-29 14:05:08 51°13.7 2°55.801 18.7658 3.033469 21.568654 1.645828
2006-08-29 14:06:08 51°13.655 2°55.893 18.7319 3.23821 23.220384 1.51099
2006-08-29 14:07:08 51°13.626 2°55.969 18.6909 3.389731 24.449956 1.409862
2006-08-29 14:08:58 51°13.604 2°56.072 18.9963 2.180325 14.446351 0.331161
2006-08-29 14:09:58 51°13.6 2°56.086 19.1101 1.193425 7.064694 0.364871